createdAt,value
2018-10-18T00:01:45.572Z,8.03
2018-10-18T00:04:14.511Z,8.60
2018-10-18T00:06:43.471Z,10.40
2018-10-18T00:09:12.896Z,8.00
2018-10-18T00:11:41.917Z,9.73
2018-10-18T00:14:10.906Z,8.67
2018-10-18T00:16:39.812Z,9.27
2018-10-18T00:19:08.843Z,10.40
2018-10-18T00:21:37.775Z,10.80
2018-10-18T00:24:06.869Z,11.83
2018-10-18T00:26:35.720Z,9.53
2018-10-18T00:29:04.688Z,9.43
2018-10-18T00:31:33.647Z,9.57
2018-10-18T00:34:02.621Z,10.20
2018-10-18T00:36:31.568Z,14.03
2018-10-18T00:39:00.539Z,9.50
2018-10-18T00:41:29.479Z,13.87
2018-10-18T00:43:58.525Z,13.37
2018-10-18T00:46:27.561Z,13.30
2018-10-18T00:48:56.499Z,11.23
2018-10-18T00:51:25.435Z,10.47
2018-10-18T00:53:54.408Z,9.50
2018-10-18T00:56:23.345Z,13.57
2018-10-18T00:58:52.369Z,14.17
2018-10-18T01:01:21.434Z,11.10
2018-10-18T01:03:50.375Z,10.83
2018-10-18T01:06:19.480Z,12.17
2018-10-18T01:08:48.650Z,13.47
2018-10-18T01:11:17.612Z,12.13
2018-10-18T01:13:46.608Z,15.50
2018-10-18T01:16:15.736Z,14.93
2018-10-18T01:18:44.718Z,13.17
2018-10-18T01:21:13.711Z,12.80
2018-10-18T01:23:42.653Z,13.57
2018-10-18T01:26:11.707Z,12.00
2018-10-18T01:28:40.540Z,12.37
2018-10-18T01:31:09.522Z,14.90
2018-10-18T01:33:38.437Z,12.27
2018-10-18T01:36:07.448Z,11.77
2018-10-18T01:38:36.365Z,16.70
2018-10-18T01:41:05.358Z,14.00
2018-10-18T01:43:34.311Z,13.77
2018-10-18T01:46:03.677Z,12.77
2018-10-18T01:48:32.648Z,13.40
2018-10-18T01:51:01.634Z,12.27
2018-10-18T01:53:30.846Z,14.70
2018-10-18T01:55:59.812Z,14.30
2018-10-18T01:58:28.744Z,15.57
2018-10-18T02:00:57.687Z,12.33
2018-10-18T02:03:26.641Z,14.03
2018-10-18T02:05:55.645Z,10.33
2018-10-18T02:08:24.539Z,9.83
2018-10-18T02:10:53.508Z,11.73
2018-10-18T02:13:22.422Z,11.60
2018-10-18T02:15:51.394Z,13.47
2018-10-18T02:18:20.415Z,12.10
2018-10-18T02:20:49.323Z,11.57
2018-10-18T02:23:18.212Z,11.30
2018-10-18T02:25:47.182Z,12.53
2018-10-18T02:28:16.143Z,9.97
2018-10-18T02:30:45.093Z,11.10
2018-10-18T02:33:14.077Z,11.90
2018-10-18T02:35:43.018Z,10.67
2018-10-18T02:38:12.074Z,13.13
2018-10-18T02:40:40.978Z,13.43
2018-10-18T02:43:09.921Z,9.97
2018-10-18T02:45:38.863Z,11.20
2018-10-18T02:48:07.854Z,11.87
2018-10-18T02:50:36.759Z,11.33
2018-10-18T02:53:05.762Z,11.57
2018-10-18T02:55:34.693Z,11.90
2018-10-18T02:58:03.803Z,12.25
2018-10-18T03:00:32.725Z,11.37
2018-10-18T03:03:01.671Z,12.10
2018-10-18T03:05:30.572Z,11.93
2018-10-18T03:07:59.511Z,9.07
2018-10-18T03:10:28.456Z,12.60
2018-10-18T03:12:57.367Z,9.90
2018-10-18T03:15:26.314Z,13.17
2018-10-18T03:17:55.332Z,13.80
2018-10-18T03:20:24.219Z,12.67
2018-10-18T03:22:53.129Z,11.23
2018-10-18T03:25:22.061Z,11.87
2018-10-18T03:27:51.000Z,10.93
2018-10-18T03:30:20.026Z,10.50
2018-10-18T03:32:48.878Z,8.70
2018-10-18T03:35:17.829Z,12.00
2018-10-18T03:37:46.788Z,8.17
2018-10-18T03:40:15.727Z,10.28
2018-10-18T03:42:44.647Z,9.03
2018-10-18T03:45:13.593Z,8.63
2018-10-18T03:47:42.553Z,11.33
2018-10-18T03:50:11.469Z,8.73
2018-10-18T03:52:40.411Z,8.50
2018-10-18T03:55:09.403Z,9.40
2018-10-18T03:57:38.313Z,9.80
2018-10-18T04:00:07.950Z,12.13
2018-10-18T04:02:36.888Z,9.83
2018-10-18T04:05:06.739Z,9.97
2018-10-18T04:07:35.653Z,12.17
2018-10-18T04:10:04.642Z,10.73
2018-10-18T04:12:33.720Z,11.00
2018-10-18T04:15:02.610Z,10.93
2018-10-18T04:17:31.652Z,12.43
2018-10-18T04:20:00.608Z,11.30
2018-10-18T04:22:29.634Z,12.13
2018-10-18T04:24:58.542Z,12.23
2018-10-18T04:27:27.493Z,11.53
2018-10-18T04:29:56.466Z,13.60
2018-10-18T04:32:25.393Z,14.53
2018-10-18T04:34:54.344Z,13.70
2018-10-18T04:37:23.317Z,11.57
2018-10-18T04:39:52.268Z,14.37
2018-10-18T04:42:21.266Z,14.10
2018-10-18T04:44:50.277Z,15.10
2018-10-18T04:47:19.478Z,18.48
2018-10-18T04:49:48.240Z,17.53
2018-10-18T04:52:17.236Z,16.80
2018-10-18T04:54:46.229Z,18.57
2018-10-18T04:57:15.196Z,21.60
2018-10-18T04:59:44.136Z,20.13
2018-10-18T05:02:13.104Z,21.67
2018-10-18T05:05:19.245Z,18.37
2018-10-18T05:07:48.303Z,20.00
2018-10-18T05:10:17.277Z,24.17
2018-10-18T05:12:46.405Z,18.43
2018-10-18T05:15:15.232Z,22.30
2018-10-18T05:17:44.202Z,22.23
2018-10-18T05:20:13.220Z,23.55
2018-10-18T05:22:42.233Z,22.90
2018-10-18T05:25:11.341Z,22.67
2018-10-18T05:27:40.189Z,20.93
2018-10-18T05:30:09.527Z,21.87
2018-10-18T05:32:38.470Z,22.67
2018-10-18T05:35:07.465Z,22.50
2018-10-18T05:37:36.428Z,22.67
2018-10-18T05:40:05.388Z,23.73
2018-10-18T05:42:34.344Z,21.57
2018-10-18T05:45:03.267Z,20.03
2018-10-18T05:47:32.197Z,21.10
2018-10-18T05:50:01.161Z,25.75
2018-10-18T05:52:30.135Z,21.20
2018-10-18T05:54:59.163Z,22.40
2018-10-18T05:57:28.152Z,23.45
2018-10-18T05:59:57.106Z,24.32
2018-10-18T06:02:26.067Z,23.40
2018-10-18T06:04:55.020Z,20.53
2018-10-18T06:07:23.973Z,19.83
2018-10-18T06:09:53.000Z,20.53
2018-10-18T06:12:21.898Z,22.47
2018-10-18T06:14:50.852Z,21.13
2018-10-18T06:17:19.834Z,21.47
2018-10-18T06:19:48.736Z,21.37
2018-10-18T06:22:17.707Z,21.93
2018-10-18T06:24:46.618Z,23.03
2018-10-18T06:27:15.586Z,20.37
2018-10-18T06:29:44.522Z,18.27
2018-10-18T06:32:13.477Z,22.60
2018-10-18T06:34:42.383Z,24.53
2018-10-18T06:37:11.449Z,23.27
2018-10-18T06:39:40.288Z,23.00
2018-10-18T06:42:09.292Z,25.12
2018-10-18T06:44:38.288Z,20.47
2018-10-18T06:47:07.493Z,24.97
2018-10-18T06:49:36.599Z,23.33
2018-10-18T06:52:05.769Z,20.90
2018-10-18T06:54:34.670Z,21.33
2018-10-18T06:57:03.622Z,24.00
2018-10-18T06:59:32.616Z,24.00
2018-10-18T07:02:01.536Z,22.43
2018-10-18T07:04:30.477Z,22.03
2018-10-18T07:06:59.441Z,19.03
2018-10-18T07:09:28.411Z,18.90
2018-10-18T07:11:57.415Z,21.37
2018-10-18T07:14:26.321Z,22.37
2018-10-18T07:16:55.289Z,19.40
2018-10-18T07:19:24.223Z,19.53
2018-10-18T07:21:53.185Z,18.63
2018-10-18T07:24:22.128Z,21.93
2018-10-18T07:26:51.119Z,18.77
2018-10-18T07:29:20.065Z,20.13
2018-10-18T07:31:49.000Z,16.03
2018-10-18T07:34:17.971Z,16.57
2018-10-18T07:36:46.905Z,16.07
2018-10-18T07:39:15.857Z,18.17
2018-10-18T07:41:45.028Z,18.03
2018-10-18T07:44:13.988Z,22.80
2018-10-18T07:46:42.947Z,20.73
2018-10-18T07:49:11.875Z,21.50
2018-10-18T07:51:40.795Z,21.83
2018-10-18T07:54:09.831Z,25.53
2018-10-18T07:56:38.723Z,17.93
2018-10-18T07:59:08.081Z,14.50
2018-10-18T08:01:36.913Z,20.87
2018-10-18T08:04:06.498Z,22.63
2018-10-18T08:06:35.444Z,22.37
2018-10-18T08:09:06.485Z,26.30
2018-10-18T08:11:35.447Z,17.13
2018-10-18T08:14:04.461Z,18.70
2018-10-18T08:16:33.390Z,16.17
2018-10-18T08:19:02.640Z,18.10
2018-10-18T08:21:31.693Z,22.97
2018-10-18T08:24:00.612Z,13.93
2018-10-18T08:26:29.559Z,18.57
2018-10-18T08:28:58.600Z,18.57
2018-10-18T08:31:27.751Z,21.00
2018-10-18T08:33:56.477Z,19.93
2018-10-18T08:36:25.472Z,14.17
2018-10-18T08:38:54.384Z,19.53
2018-10-18T08:41:23.338Z,18.10
2018-10-18T08:43:52.271Z,19.73
2018-10-18T08:46:21.239Z,23.90
2018-10-18T08:48:50.154Z,19.13
2018-10-18T08:51:19.302Z,15.83
2018-10-18T08:53:48.239Z,18.70
2018-10-18T08:56:17.168Z,15.95
2018-10-18T08:58:46.178Z,15.20
2018-10-18T09:01:15.235Z,20.27
2018-10-18T09:03:44.109Z,15.43
2018-10-18T09:06:13.060Z,22.80
2018-10-18T09:08:42.007Z,15.10
2018-10-18T09:11:10.932Z,14.37
2018-10-18T09:13:39.871Z,17.97
2018-10-18T09:16:08.991Z,11.73
2018-10-18T09:18:37.856Z,15.80
2018-10-18T09:21:06.893Z,17.60
2018-10-18T09:23:35.899Z,17.53
2018-10-18T09:26:04.847Z,15.97
2018-10-18T09:28:33.777Z,15.60
2018-10-18T09:31:02.769Z,19.00
2018-10-18T09:33:31.625Z,17.33
2018-10-18T09:36:00.583Z,15.83
2018-10-18T09:38:29.616Z,19.03
2018-10-18T09:40:58.481Z,13.87
2018-10-18T09:43:27.398Z,12.30
2018-10-18T09:45:56.341Z,15.20
2018-10-18T09:48:25.256Z,12.83
2018-10-18T09:50:54.213Z,15.53
2018-10-18T09:53:23.378Z,13.43
2018-10-18T09:55:52.362Z,17.83
2018-10-18T09:58:21.284Z,17.77
2018-10-18T10:01:07.927Z,11.63
2018-10-18T10:03:36.806Z,19.20
2018-10-18T10:06:06.500Z,16.53
2018-10-18T10:08:35.456Z,9.53
2018-10-18T10:11:04.431Z,13.43
2018-10-18T10:13:33.455Z,11.40
2018-10-18T10:16:02.338Z,16.73
2018-10-18T10:18:31.269Z,14.98
2018-10-18T10:21:00.217Z,13.30
2018-10-18T10:23:29.176Z,14.60
2018-10-18T10:25:58.082Z,10.00
2018-10-18T10:28:27.045Z,12.90
2018-10-18T10:30:56.014Z,12.03
2018-10-18T10:33:24.954Z,9.98
2018-10-18T10:35:53.808Z,12.45
2018-10-18T10:38:22.770Z,13.28
2018-10-18T10:40:51.706Z,15.13
2018-10-18T10:43:20.662Z,18.27
2018-10-18T10:45:49.634Z,15.25
2018-10-18T10:48:18.660Z,12.50
2018-10-18T10:50:47.435Z,13.30
2018-10-18T10:53:16.382Z,11.45
2018-10-18T10:55:45.362Z,12.95
2018-10-18T10:58:14.351Z,11.80
2018-10-18T11:01:04.633Z,9.53
2018-10-18T11:03:33.615Z,9.70
2018-10-18T11:06:02.721Z,13.53
2018-10-18T11:08:31.501Z,16.27
2018-10-18T11:11:00.570Z,14.13
2018-10-18T11:13:30.102Z,13.28
2018-10-18T11:16:00.348Z,12.40
2018-10-18T11:18:29.521Z,11.43
2018-10-18T11:20:58.499Z,17.80
2018-10-18T11:23:27.398Z,13.50
2018-10-18T11:25:56.369Z,10.13
2018-10-18T11:28:25.272Z,8.47
2018-10-18T11:30:54.226Z,8.45
2018-10-18T11:33:23.170Z,10.63
2018-10-18T11:35:52.134Z,11.90
2018-10-18T11:38:21.030Z,11.80
2018-10-18T11:40:49.981Z,7.85
2018-10-18T11:43:18.912Z,13.83
2018-10-18T11:45:47.861Z,11.83
2018-10-18T11:48:17.059Z,9.65
2018-10-18T11:50:46.020Z,9.73
2018-10-18T11:53:14.955Z,13.63
2018-10-18T11:55:43.934Z,16.50
2018-10-18T11:58:13.400Z,8.80
2018-10-18T12:00:42.335Z,15.13
2018-10-18T12:03:11.417Z,13.08
2018-10-18T12:05:40.326Z,10.33
2018-10-18T12:08:09.342Z,8.73
2018-10-18T12:10:38.226Z,11.63
2018-10-18T12:13:07.441Z,13.28
2018-10-18T12:15:36.308Z,8.03
2018-10-18T12:18:05.541Z,12.07
2018-10-18T12:20:34.500Z,8.87
2018-10-18T12:23:03.450Z,7.37
2018-10-18T12:25:32.314Z,9.00
2018-10-18T12:28:01.308Z,9.77
2018-10-18T12:30:30.247Z,7.77
2018-10-18T12:32:59.215Z,10.47
2018-10-18T12:35:28.143Z,9.27
2018-10-18T12:37:57.139Z,8.98
2018-10-18T12:40:26.101Z,10.75
2018-10-18T12:42:54.935Z,11.80
2018-10-18T12:45:23.873Z,13.22
2018-10-18T12:47:52.839Z,10.15
2018-10-18T12:50:21.730Z,9.98
2018-10-18T12:52:50.665Z,10.30
2018-10-18T12:55:19.616Z,11.60
2018-10-18T12:57:48.548Z,10.08
2018-10-18T13:00:17.653Z,8.60
2018-10-18T13:02:46.442Z,8.47
2018-10-18T13:05:15.382Z,12.05
2018-10-18T13:07:44.344Z,8.55
2018-10-18T13:10:13.388Z,12.77
2018-10-18T13:12:42.425Z,9.17
2018-10-18T13:15:12.003Z,6.90
2018-10-18T13:17:40.959Z,10.72
2018-10-18T13:20:10.831Z,7.03
2018-10-18T13:22:39.990Z,9.65
2018-10-18T13:25:10.457Z,9.93
2018-10-18T13:27:39.511Z,11.63
2018-10-18T13:30:09.785Z,10.72
2018-10-18T13:32:39.369Z,10.85
2018-10-18T13:35:08.947Z,10.53
2018-10-18T13:37:38.007Z,9.38
2018-10-18T13:40:07.904Z,7.03
2018-10-18T13:42:37.959Z,10.35
2018-10-18T13:45:07.906Z,8.93
2018-10-18T13:47:39.936Z,7.20
2018-10-18T13:50:09.654Z,7.15
2018-10-18T13:52:39.165Z,7.87
2018-10-18T13:55:08.191Z,6.83
2018-10-18T13:57:37.124Z,8.10
2018-10-18T14:00:29.594Z,6.50
2018-10-18T14:02:58.584Z,6.33
2018-10-18T14:05:28.020Z,5.27
2018-10-18T14:07:57.483Z,8.27
2018-10-18T14:10:26.357Z,9.37
2018-10-18T14:12:55.365Z,7.03
2018-10-18T14:15:27.778Z,6.40
2018-10-18T14:17:57.456Z,7.08
2018-10-18T14:20:27.335Z,6.83
2018-10-18T14:22:57.161Z,9.50
2018-10-18T14:25:26.980Z,7.03
2018-10-18T14:27:56.505Z,9.80
2018-10-18T14:30:26.146Z,6.63
2018-10-18T14:32:55.652Z,5.80
2018-10-18T14:35:25.321Z,9.27
2018-10-18T14:37:55.185Z,7.10
2018-10-18T14:40:24.247Z,5.50
2018-10-18T14:42:54.283Z,4.97
2018-10-18T14:45:23.761Z,6.47
2018-10-18T14:47:56.860Z,5.13
2018-10-18T14:50:26.469Z,7.25
2018-10-18T14:52:56.199Z,7.73
2018-10-18T14:55:25.646Z,8.13
2018-10-18T14:57:55.248Z,8.33
2018-10-18T15:00:24.615Z,8.83
2018-10-18T15:02:56.780Z,4.47
2018-10-18T15:05:27.103Z,5.30
2018-10-18T15:07:58.895Z,5.93
2018-10-18T15:10:30.916Z,5.17
2018-10-18T15:13:03.051Z,5.17
2018-10-18T15:15:33.024Z,6.17
2018-10-18T15:18:02.334Z,6.00
2018-10-18T15:20:31.902Z,5.33
2018-10-18T15:23:01.398Z,5.80
2018-10-18T15:25:31.112Z,4.53
2018-10-18T15:28:02.418Z,6.30
2018-10-18T15:30:31.333Z,7.83
2018-10-18T15:33:00.351Z,6.93
2018-10-18T15:35:29.217Z,6.80
2018-10-18T15:37:58.230Z,5.77
2018-10-18T15:40:27.097Z,5.93
2018-10-18T15:42:56.076Z,6.83
2018-10-18T15:45:24.981Z,5.50
2018-10-18T15:47:53.965Z,7.33
2018-10-18T15:50:22.895Z,7.00
2018-10-18T15:52:51.818Z,8.00
2018-10-18T15:55:20.763Z,6.40
2018-10-18T15:57:49.732Z,7.10
2018-10-18T16:00:18.761Z,6.70
2018-10-18T16:02:47.580Z,6.07
2018-10-18T16:05:16.658Z,7.43
2018-10-18T16:07:45.461Z,8.13
2018-10-18T16:10:14.412Z,8.53
2018-10-18T16:12:43.345Z,4.00
2018-10-18T16:15:12.297Z,5.30
2018-10-18T16:17:41.415Z,7.50
2018-10-18T16:20:10.765Z,5.53
2018-10-18T16:22:40.161Z,5.80
2018-10-18T16:25:10.787Z,7.63
2018-10-18T16:27:39.963Z,5.87
2018-10-18T16:30:09.056Z,6.33
2018-10-18T16:32:38.363Z,7.63
2018-10-18T16:35:08.219Z,6.83
2018-10-18T16:37:37.058Z,6.50
2018-10-18T16:40:06.626Z,4.03
2018-10-18T16:42:35.555Z,7.73
2018-10-18T16:45:05.017Z,6.47
2018-10-18T16:47:34.068Z,4.30
2018-10-18T16:50:02.966Z,4.67
2018-10-18T16:52:31.910Z,7.57
2018-10-18T16:55:00.901Z,5.23
2018-10-18T16:57:29.908Z,4.90
2018-10-18T16:59:58.844Z,4.60
2018-10-18T17:02:27.723Z,4.53
2018-10-18T17:04:56.723Z,8.93
2018-10-18T17:07:25.694Z,5.75
2018-10-18T17:09:54.687Z,6.27
2018-10-18T17:12:23.600Z,6.10
2018-10-18T17:14:52.601Z,3.93
2018-10-18T17:17:21.581Z,4.37
2018-10-18T17:19:50.605Z,5.60
2018-10-18T17:22:19.583Z,5.92
2018-10-18T17:24:48.643Z,7.83
2018-10-18T17:27:17.756Z,4.23
2018-10-18T17:29:46.520Z,7.90
2018-10-18T17:32:15.623Z,3.90
2018-10-18T17:34:44.424Z,4.17
2018-10-18T17:37:13.419Z,7.00
2018-10-18T17:39:42.365Z,6.17
2018-10-18T17:42:11.380Z,6.60
2018-10-18T17:44:40.271Z,4.47
2018-10-18T17:47:09.385Z,3.50
2018-10-18T17:49:38.281Z,9.10
2018-10-18T17:52:07.333Z,5.57
2018-10-18T17:54:36.230Z,4.20
2018-10-18T17:57:05.272Z,5.77
2018-10-18T17:59:34.276Z,5.80
2018-10-18T18:02:03.213Z,6.60
2018-10-18T18:04:32.129Z,6.33
2018-10-18T18:07:01.220Z,6.53
2018-10-18T18:09:30.123Z,6.03
2018-10-18T18:11:59.057Z,5.27
2018-10-18T18:14:28.001Z,6.83
2018-10-18T18:16:57.006Z,4.87
2018-10-18T18:19:25.995Z,4.50
2018-10-18T18:21:55.007Z,7.08
2018-10-18T18:24:23.955Z,5.13
2018-10-18T18:26:52.946Z,8.87
2018-10-18T18:29:21.880Z,3.63
2018-10-18T18:31:50.848Z,5.87
2018-10-18T18:34:19.798Z,7.20
2018-10-18T18:36:48.767Z,8.60
2018-10-18T18:39:17.739Z,11.67
2018-10-18T18:41:46.670Z,6.63
2018-10-18T18:44:15.684Z,3.90
2018-10-18T18:46:44.754Z,7.23
2018-10-18T18:49:13.670Z,8.07
2018-10-18T18:51:42.690Z,5.80
2018-10-18T18:54:11.606Z,5.60
2018-10-18T18:56:40.585Z,4.57
2018-10-18T18:59:09.532Z,5.53
2018-10-18T19:01:38.487Z,3.92
2018-10-18T19:04:07.598Z,2.90
2018-10-18T19:06:36.539Z,5.87
2018-10-18T19:09:07.278Z,6.10
2018-10-18T19:11:36.094Z,6.23
2018-10-18T19:14:05.495Z,4.27
2018-10-18T19:16:34.390Z,7.07
2018-10-18T19:19:03.655Z,5.23
2018-10-18T19:21:32.773Z,8.27
2018-10-18T19:24:01.767Z,5.80
2018-10-18T19:26:30.686Z,4.03
2018-10-18T19:28:59.652Z,3.83
2018-10-18T19:31:28.585Z,4.43
2018-10-18T19:33:57.587Z,4.50
2018-10-18T19:36:26.503Z,4.70
2018-10-18T19:38:55.442Z,6.53
2018-10-18T19:41:24.376Z,4.53
2018-10-18T19:43:53.374Z,6.87
2018-10-18T19:46:22.476Z,8.40
2018-10-18T19:48:51.243Z,5.80
2018-10-18T19:51:20.221Z,7.03
2018-10-18T19:53:49.176Z,4.00
2018-10-18T19:56:18.145Z,4.00
2018-10-18T19:58:47.125Z,5.40
2018-10-18T20:01:16.090Z,5.47
2018-10-18T20:03:45.053Z,7.63
2018-10-18T20:06:14.026Z,6.57
2018-10-18T20:08:43.028Z,8.20
2018-10-18T20:11:11.941Z,8.83
2018-10-18T20:13:40.880Z,9.30
2018-10-18T20:16:09.799Z,9.23
2018-10-18T20:18:38.849Z,6.40
2018-10-18T20:21:07.874Z,8.07
2018-10-18T20:23:36.777Z,4.33
2018-10-18T20:26:06.103Z,7.15
2018-10-18T20:28:34.686Z,4.87
2018-10-18T20:31:03.618Z,7.50
2018-10-18T20:33:32.555Z,6.60
2018-10-18T20:36:01.533Z,5.20
2018-10-18T20:38:30.428Z,4.60
2018-10-18T20:40:59.412Z,5.67
2018-10-18T20:43:28.308Z,8.50
2018-10-18T20:45:57.305Z,5.13
2018-10-18T20:48:26.232Z,7.17
2018-10-18T20:50:55.215Z,4.90
2018-10-18T20:53:24.196Z,7.37
2018-10-18T20:55:53.189Z,6.30
2018-10-18T20:58:22.242Z,6.10
2018-10-18T21:00:51.145Z,7.57
2018-10-18T21:03:20.066Z,6.47
2018-10-18T21:05:49.058Z,9.23
2018-10-18T21:08:17.991Z,3.57
2018-10-18T21:10:47.061Z,8.87
2018-10-18T21:13:16.014Z,4.57
2018-10-18T21:15:44.969Z,4.77
2018-10-18T21:18:14.024Z,6.70
2018-10-18T21:20:42.932Z,6.93
2018-10-18T21:23:12.119Z,8.47
2018-10-18T21:25:40.840Z,5.70
2018-10-18T21:28:09.830Z,4.57
2018-10-18T21:31:09.392Z,4.53
2018-10-18T21:33:38.396Z,5.37
2018-10-18T21:36:07.394Z,6.58
2018-10-18T21:38:36.396Z,6.37
2018-10-18T21:41:05.582Z,5.37
2018-10-18T21:43:34.513Z,7.80
2018-10-18T21:46:03.432Z,7.20
2018-10-18T21:48:32.801Z,6.57
2018-10-18T21:51:01.824Z,6.93
2018-10-18T21:53:30.748Z,5.57
2018-10-18T21:55:59.671Z,6.70
2018-10-18T21:58:28.642Z,7.10
2018-10-18T22:00:57.597Z,7.77
2018-10-18T22:03:26.528Z,9.30
2018-10-18T22:05:55.521Z,12.17
2018-10-18T22:08:24.510Z,9.85
2018-10-18T22:10:53.462Z,11.33
2018-10-18T22:13:22.443Z,7.37
2018-10-18T22:15:51.410Z,6.80
2018-10-18T22:18:20.379Z,5.53
2018-10-18T22:20:49.374Z,5.13
2018-10-18T22:23:18.327Z,9.05
2018-10-18T22:25:47.279Z,8.43
2018-10-18T22:28:16.277Z,4.83
2018-10-18T22:30:45.264Z,10.20
2018-10-18T22:33:14.354Z,8.30
2018-10-18T22:35:43.258Z,4.03
2018-10-18T22:38:12.222Z,6.10
2018-10-18T22:40:41.212Z,7.80
2018-10-18T22:43:10.240Z,7.28
2018-10-18T22:45:39.206Z,9.40
2018-10-18T22:48:08.219Z,5.80
2018-10-18T22:50:37.140Z,5.03
2018-10-18T22:53:06.158Z,6.77
2018-10-18T22:55:35.085Z,9.67
2018-10-18T22:58:04.089Z,4.63
2018-10-18T23:00:33.061Z,7.75
2018-10-18T23:03:02.149Z,8.77
2018-10-18T23:05:31.019Z,7.70
2018-10-18T23:08:00.000Z,8.30
2018-10-18T23:10:28.941Z,7.33
2018-10-18T23:12:57.934Z,6.17
2018-10-18T23:15:26.925Z,6.30
2018-10-18T23:17:55.904Z,5.53
2018-10-18T23:20:24.834Z,7.20
2018-10-18T23:22:53.801Z,4.47
2018-10-18T23:25:22.729Z,6.60
2018-10-18T23:27:51.670Z,4.70
2018-10-18T23:30:20.637Z,7.50
2018-10-18T23:32:49.598Z,11.77
2018-10-18T23:35:18.558Z,4.63
2018-10-18T23:37:47.473Z,5.20
2018-10-18T23:40:16.446Z,8.33
2018-10-18T23:42:45.398Z,6.27
2018-10-18T23:45:14.396Z,9.83
2018-10-18T23:47:43.332Z,6.73
2018-10-18T23:50:12.309Z,7.13
2018-10-18T23:52:41.222Z,8.50
2018-10-18T23:55:10.227Z,8.17
2018-10-18T23:57:39.133Z,5.30
